Time;durP1;ratioP1;P1;durP2;ratioP2;P2;SDS_P1;SDS_P2;PMS_P1;PMS_P2;Temp;Humidity;BMP_temperature;BMP_pressure;BME280_temperature;BME280_humidity;BME280_pressure;Samples;Min_cycle;Max_cycle;Signal;HPM_P1;HPM_P2
2022/10/20 00:01:55;;;;;;;4.80;1.13;;;12.40;99.90;;;;;;5014639;28;20487;-87
2022/10/20 00:04:23;;;;;;;4.60;1.20;;;12.40;99.90;;;;;;5014936;28;20463;-87
2022/10/20 00:06:49;;;;;;;1.07;0.83;;;12.30;99.90;;;;;;5014623;28;20452;-87
2022/10/20 00:09:16;;;;;;;2.53;1.50;;;12.30;99.90;;;;;;5014885;28;20443;-87
2022/10/20 00:11:44;;;;;;;1.77;1.00;;;12.20;99.90;;;;;;5014502;28;20579;-87
2022/10/20 00:14:12;;;;;;;1.20;1.00;;;12.30;99.90;;;;;;5014814;28;20453;-87
2022/10/20 00:16:39;;;;;;;2.87;1.37;;;12.20;99.90;;;;;;5014864;28;20460;-88
2022/10/20 00:19:07;;;;;;;2.53;2.33;;;12.30;99.90;;;;;;5014828;28;20808;-89
2022/10/20 00:21:35;;;;;;;6.33;1.77;;;12.20;99.90;;;;;;5014782;28;20470;-87
2022/10/20 00:24:02;;;;;;;3.07;2.87;;;12.20;99.90;;;;;;5014330;28;20544;-87
2022/10/20 00:26:32;;;;;;;2.87;1.33;;;12.20;99.90;;;;;;5014593;28;20452;-87
2022/10/20 00:28:59;;;;;;;1.67;1.00;;;12.20;99.90;;;;;;5014436;28;20451;-87
2022/10/20 00:31:26;;;;;;;1.50;1.40;;;12.20;99.90;;;;;;5014201;28;20486;-87
2022/10/20 00:33:53;;;;;;;4.00;1.13;;;12.20;99.90;;;;;;5014543;28;20817;-87
2022/10/20 00:36:22;;;;;;;3.33;2.00;;;12.10;99.90;;;;;;5014411;28;20448;-88
2022/10/20 00:38:51;;;;;;;2.00;1.30;;;12.10;99.90;;;;;;5014123;28;20443;-87
2022/10/20 00:41:20;;;;;;;1.70;0.80;;;12.00;99.90;;;;;;5014363;28;20490;-87
2022/10/20 00:43:50;;;;;;;4.10;2.43;;;12.00;99.90;;;;;;5014221;28;20463;-87
2022/10/20 00:46:19;;;;;;;1.60;1.00;;;11.90;99.90;;;;;;5014035;28;20440;-87
2022/10/20 00:48:52;;;;;;;2.20;2.03;;;11.90;99.90;;;;;;5014255;28;20454;-87
2022/10/20 00:51:22;;;;;;;3.70;1.20;;;11.90;99.90;;;;;;5013901;28;20491;-88
2022/10/20 00:53:53;;;;;;;2.00;1.07;;;11.90;99.90;;;;;;5014045;28;20437;-87
2022/10/20 00:56:20;;;;;;;1.73;0.80;;;11.90;99.90;;;;;;5013955;28;20432;-88
2022/10/20 00:58:47;;;;;;;1.27;1.17;;;12.00;99.90;;;;;;5014281;28;20527;-87
2022/10/20 01:01:15;;;;;;;2.27;1.17;;;12.00;99.90;;;;;;5013663;28;20487;-87
2022/10/20 01:03:45;;;;;;;2.53;1.27;;;11.90;99.90;;;;;;5014214;28;20437;-87
2022/10/20 01:06:14;;;;;;;1.37;1.10;;;11.80;99.90;;;;;;5014222;28;20431;-87
2022/10/20 01:08:41;;;;;;;6.33;1.77;;;11.80;99.90;;;;;;4997277;28;20452;-87
2022/10/20 01:11:19;;;;;;;5.10;1.90;;;11.80;99.90;;;;;;5013870;28;20495;-87
2022/10/20 01:14:00;;;;;;;6.50;1.60;;;11.80;99.90;;;;;;5014029;28;20419;-87
2022/10/20 01:16:37;;;;;;;4.20;1.53;;;11.80;99.90;;;;;;5014156;28;20429;-87
2022/10/20 01:19:19;;;;;;;2.30;1.10;;;11.80;99.90;;;;;;5014744;28;20453;-87
2022/10/20 01:22:12;;;;;;;3.23;1.10;;;11.80;99.90;;;;;;5013693;28;20995;-87
2022/10/20 01:25:06;;;;;;;1.97;0.80;;;11.80;99.90;;;;;;5013795;28;20460;-86
2022/10/20 01:27:37;;;;;;;2.40;1.17;;;11.80;99.90;;;;;;5011173;28;20447;-87
2022/10/20 01:30:11;;;;;;;4.20;1.57;;;11.80;99.90;;;;;;5013936;28;20464;-87
2022/10/20 01:32:49;;;;;;;1.30;1.20;;;11.80;99.90;;;;;;5013663;28;20479;-87
2022/10/20 01:35:23;;;;;;;3.40;2.47;;;11.80;99.90;;;;;;5013976;28;20443;-87
2022/10/20 01:37:54;;;;;;;3.03;1.67;;;11.80;99.90;;;;;;5014499;28;20803;-86
2022/10/20 01:40:29;;;;;;;2.47;1.43;;;11.70;99.90;;;;;;5014210;28;20528;-88
2022/10/20 01:43:01;;;;;;;4.93;1.00;;;11.60;99.90;;;;;;5014561;28;20436;-89
2022/10/20 01:45:32;;;;;;;1.80;0.93;;;11.60;99.90;;;;;;5014061;28;20439;-88
2022/10/20 01:48:03;;;;;;;3.83;2.00;;;11.60;99.90;;;;;;5014729;28;20447;-88
2022/10/20 01:50:30;;;;;;;2.03;1.23;;;11.60;99.90;;;;;;5013699;28;20478;-87
2022/10/20 01:52:58;;;;;;;5.47;1.57;;;11.60;99.90;;;;;;5015256;28;20510;-87
2022/10/20 01:55:25;;;;;;;2.57;1.90;;;11.70;99.90;;;;;;5017311;28;20441;-87
2022/10/20 01:58:14;;;;;;;3.77;2.70;;;11.70;99.90;;;;;;5017363;28;20863;-87
2022/10/20 02:00:43;;;;;;;4.07;1.70;;;11.70;99.90;;;;;;5017294;28;20482;-88
2022/10/20 02:03:32;;;;;;;2.27;1.83;;;11.70;99.90;;;;;;5016795;28;20472;-87
2022/10/20 02:06:11;;;;;;;5.77;1.80;;;11.70;99.90;;;;;;5017076;28;20451;-87
2022/10/20 02:08:45;;;;;;;3.43;1.70;;;11.70;99.90;;;;;;5017815;28;20794;-88
2022/10/20 02:11:19;;;;;;;4.60;1.50;;;11.70;99.90;;;;;;5016600;28;20496;-88
2022/10/20 02:13:49;;;;;;;3.97;1.27;;;11.70;99.90;;;;;;5016839;28;20908;-88
2022/10/20 02:16:28;;;;;;;2.80;1.50;;;11.70;99.90;;;;;;5016903;28;20456;-87
2022/10/20 02:18:55;;;;;;;3.23;2.20;;;11.70;99.90;;;;;;5017041;28;20432;-87
2022/10/20 02:21:22;;;;;;;3.27;1.63;;;11.70;99.90;;;;;;5016476;28;20467;-87
2022/10/20 02:23:51;;;;;;;3.07;1.90;;;11.70;99.90;;;;;;5016769;28;20457;-88
2022/10/20 02:26:21;;;;;;;4.37;1.77;;;11.70;99.90;;;;;;5016546;28;20453;-87
2022/10/20 02:28:54;;;;;;;2.47;1.23;;;11.70;99.90;;;;;;5016330;28;20444;-87
2022/10/20 02:31:21;;;;;;;4.50;1.33;;;11.70;99.90;;;;;;5016260;28;20488;-87
2022/10/20 02:33:48;;;;;;;3.50;1.97;;;11.70;99.90;;;;;;5016565;28;20460;-88
2022/10/20 02:36:18;;;;;;;1.60;1.50;;;11.70;99.90;;;;;;5016584;28;20452;-88
2022/10/20 02:38:45;;;;;;;6.47;1.67;;;11.70;99.90;;;;;;5016513;28;20427;-87
2022/10/20 02:41:12;;;;;;;3.13;1.53;;;11.70;99.90;;;;;;5016449;28;20476;-87
2022/10/20 02:43:39;;;;;;;3.43;1.33;;;11.70;99.90;;;;;;5016263;28;20457;-87
2022/10/20 02:46:07;;;;;;;3.40;1.97;;;11.80;99.90;;;;;;5016435;28;20808;-87
2022/10/20 02:48:37;;;;;;;7.07;1.70;;;11.80;99.90;;;;;;5015894;28;20441;-87
2022/10/20 02:51:04;;;;;;;4.73;1.20;;;11.80;99.90;;;;;;5015884;28;20464;-87
2022/10/20 02:53:31;;;;;;;1.20;0.93;;;11.70;99.90;;;;;;5016135;28;20452;-87
2022/10/20 02:55:57;;;;;;;2.20;1.20;;;11.80;99.90;;;;;;5015836;28;20443;-87
2022/10/20 02:58:24;;;;;;;5.27;1.37;;;11.70;99.90;;;;;;5016679;28;20455;-87
2022/10/20 03:00:51;;;;;;;3.27;1.33;;;11.70;99.90;;;;;;5015463;28;20979;-86
2022/10/20 03:03:19;;;;;;;1.83;1.50;;;11.70;99.90;;;;;;5015665;28;20817;-87
2022/10/20 03:05:46;;;;;;;5.23;1.60;;;11.70;99.90;;;;;;5015241;28;20444;-87
2022/10/20 03:08:14;;;;;;;2.87;1.13;;;11.70;99.90;;;;;;5015834;28;20454;-87
2022/10/20 03:10:41;;;;;;;3.20;1.20;;;11.70;99.90;;;;;;5015791;28;20475;-86
2022/10/20 03:13:08;;;;;;;2.53;1.50;;;11.70;99.90;;;;;;5015574;28;21027;-87
2022/10/20 03:15:35;;;;;;;3.73;1.50;;;11.70;99.90;;;;;;5015545;28;20421;-87
2022/10/20 03:18:02;;;;;;;3.43;1.50;;;11.70;99.90;;;;;;5015924;28;20441;-87
2022/10/20 03:20:30;;;;;;;1.43;1.07;;;11.70;99.90;;;;;;5015378;28;21005;-87
2022/10/20 03:22:57;;;;;;;2.70;2.20;;;11.70;99.90;;;;;;5015649;28;20448;-87
2022/10/20 03:25:24;;;;;;;2.20;1.43;;;11.80;99.90;;;;;;5015748;28;20444;-87
2022/10/20 03:27:50;;;;;;;3.33;0.87;;;11.80;99.90;;;;;;5015817;28;20787;-88
2022/10/20 03:30:18;;;;;;;4.63;1.63;;;11.80;99.90;;;;;;5015480;28;20487;-90
2022/10/20 03:32:44;;;;;;;1.60;1.50;;;11.80;99.90;;;;;;5015528;28;21013;-87
2022/10/20 03:35:11;;;;;;;3.90;1.50;;;11.80;99.90;;;;;;5015348;28;20459;-87
2022/10/20 03:37:39;;;;;;;1.30;1.07;;;11.80;99.90;;;;;;5015435;28;20460;-87
2022/10/20 03:40:07;;;;;;;1.27;1.10;;;11.80;99.90;;;;;;5014938;28;21002;-87
2022/10/20 03:42:34;;;;;;;6.70;1.90;;;11.80;99.90;;;;;;5014871;28;21053;-87
2022/10/20 03:45:01;;;;;;;1.57;0.97;;;11.80;99.90;;;;;;5015153;28;20487;-87
2022/10/20 03:47:28;;;;;;;3.40;2.10;;;11.80;99.90;;;;;;5014728;28;20951;-87
2022/10/20 03:49:55;;;;;;;4.40;1.37;;;11.80;99.90;;;;;;5015181;28;20452;-86
2022/10/20 03:52:21;;;;;;;2.97;1.00;;;11.80;99.90;;;;;;5014766;28;20476;-86
2022/10/20 03:54:50;;;;;;;1.73;1.50;;;11.80;99.90;;;;;;5014487;28;20940;-87
2022/10/20 03:57:17;;;;;;;1.70;1.30;;;11.80;99.90;;;;;;5015069;28;20439;-87
2022/10/20 03:59:43;;;;;;;5.30;2.40;;;11.90;99.90;;;;;;5014678;28;20443;-87
2022/10/20 04:02:28;;;;;;;5.00;1.80;;;11.90;99.90;;;;;;5014448;28;20505;-87
2022/10/20 04:04:55;;;;;;;3.70;1.50;;;11.80;99.90;;;;;;5015378;28;20459;-86
2022/10/20 04:07:22;;;;;;;1.53;1.00;;;11.90;99.90;;;;;;5014813;28;20459;-87
2022/10/20 04:09:50;;;;;;;2.60;1.77;;;11.80;99.90;;;;;;5014501;28;20456;-88
2022/10/20 04:12:16;;;;;;;2.63;1.93;;;11.90;99.90;;;;;;5014335;28;21022;-88
2022/10/20 04:14:43;;;;;;;2.07;1.83;;;11.90;99.90;;;;;;5014684;28;20822;-87
2022/10/20 04:17:10;;;;;;;3.67;1.40;;;11.90;99.90;;;;;;5014551;28;20809;-88
2022/10/20 04:19:37;;;;;;;2.77;1.47;;;11.90;99.90;;;;;;5014917;28;20464;-87
2022/10/20 04:22:03;;;;;;;1.37;1.20;;;11.90;99.90;;;;;;5014499;28;20445;-86
2022/10/20 04:24:30;;;;;;;2.33;1.93;;;11.90;99.90;;;;;;5014560;28;20819;-87
2022/10/20 04:26:59;;;;;;;2.77;1.90;;;11.90;99.90;;;;;;5014247;28;20437;-87
2022/10/20 04:29:26;;;;;;;2.10;1.33;;;11.80;99.90;;;;;;5014117;28;20439;-87
2022/10/20 04:31:52;;;;;;;5.77;2.57;;;11.80;99.90;;;;;;5014202;28;20488;-87
2022/10/20 04:34:19;;;;;;;2.70;1.60;;;11.80;99.90;;;;;;5014249;28;20440;-87
2022/10/20 04:36:46;;;;;;;2.20;1.17;;;11.80;99.90;;;;;;5014221;28;20459;-87
2022/10/20 04:39:13;;;;;;;3.53;1.13;;;11.90;99.90;;;;;;5014265;28;20467;-87
2022/10/20 04:41:40;;;;;;;2.53;1.30;;;11.90;99.90;;;;;;5013845;28;20463;-87
2022/10/20 04:44:08;;;;;;;2.40;1.53;;;11.90;99.90;;;;;;5014391;28;20451;-87
2022/10/20 04:46:35;;;;;;;1.40;1.10;;;11.90;99.90;;;;;;5013925;28;20449;-87
2022/10/20 04:49:02;;;;;;;4.93;2.50;;;11.90;99.90;;;;;;5014320;28;20448;-87
2022/10/20 04:51:29;;;;;;;3.73;1.40;;;11.90;99.90;;;;;;5014204;28;20479;-87
2022/10/20 04:53:55;;;;;;;2.13;1.20;;;11.90;99.90;;;;;;5014090;28;20488;-87
2022/10/20 04:56:23;;;;;;;4.30;1.50;;;11.90;99.90;;;;;;5014173;28;20455;-86
2022/10/20 04:58:50;;;;;;;4.37;1.60;;;11.90;99.90;;;;;;5014294;28;20799;-87
2022/10/20 05:01:20;;;;;;;4.87;1.50;;;11.90;99.90;;;;;;5013817;28;20498;-87
2022/10/20 05:03:47;;;;;;;7.43;2.53;;;11.90;99.90;;;;;;5014214;28;20452;-88
2022/10/20 05:06:15;;;;;;;3.03;1.83;;;11.90;99.90;;;;;;5014220;28;20463;-87
2022/10/20 05:08:45;;;;;;;5.00;2.00;;;11.80;99.90;;;;;;5014475;28;20460;-87
2022/10/20 05:11:12;;;;;;;2.43;1.80;;;11.80;99.90;;;;;;5014072;28;20843;-87
2022/10/20 05:13:39;;;;;;;2.53;1.67;;;11.80;99.90;;;;;;5013924;28;21002;-87
2022/10/20 05:16:07;;;;;;;2.90;2.23;;;11.80;99.90;;;;;;5014299;28;20527;-87
2022/10/20 05:18:36;;;;;;;2.07;1.37;;;11.80;99.90;;;;;;5014165;28;20463;-87
2022/10/20 05:21:06;;;;;;;2.10;0.97;;;11.80;99.90;;;;;;5013990;28;20986;-87
2022/10/20 05:23:32;;;;;;;2.43;1.50;;;11.80;99.90;;;;;;5014190;28;20438;-87
2022/10/20 05:26:02;;;;;;;2.80;1.30;;;11.70;99.90;;;;;;5014140;28;20453;-87
2022/10/20 05:28:29;;;;;;;2.97;1.57;;;11.70;99.90;;;;;;5017008;28;20440;-87
2022/10/20 05:30:56;;;;;;;9.03;2.70;;;11.70;99.90;;;;;;5017959;28;20475;-87
2022/10/20 05:33:23;;;;;;;2.80;1.73;;;11.70;99.90;;;;;;5018060;28;20997;-88
2022/10/20 05:35:51;;;;;;;4.47;2.90;;;11.70;99.90;;;;;;5018008;28;20540;-87
2022/10/20 05:38:18;;;;;;;3.70;1.37;;;11.80;99.90;;;;;;5018015;28;20459;-88
2022/10/20 05:40:45;;;;;;;3.70;1.10;;;11.80;99.90;;;;;;5017593;28;20480;-87
2022/10/20 05:43:11;;;;;;;3.63;1.70;;;11.80;99.90;;;;;;5018199;28;20440;-87
2022/10/20 05:45:38;;;;;;;4.97;1.57;;;11.80;99.90;;;;;;5018058;28;20455;-87
2022/10/20 05:48:05;;;;;;;1.60;1.50;;;11.70;99.90;;;;;;5017368;28;20447;-86
2022/10/20 05:50:32;;;;;;;3.07;1.13;;;11.60;99.90;;;;;;5017621;28;20472;-87
2022/10/20 05:53:00;;;;;;;1.93;1.37;;;11.70;99.90;;;;;;5017775;28;20494;-86
2022/10/20 05:55:27;;;;;;;1.37;1.23;;;11.70;99.90;;;;;;5017755;28;20456;-87
2022/10/20 05:57:54;;;;;;;2.30;1.23;;;11.70;99.90;;;;;;5017511;28;20963;-86
2022/10/20 06:00:28;;;;;;;3.27;2.50;;;11.60;99.90;;;;;;5017140;28;20460;-87
2022/10/20 06:02:55;;;;;;;1.97;1.17;;;11.60;99.90;;;;;;5016929;28;21065;-88
2022/10/20 06:05:22;;;;;;;1.53;1.03;;;11.70;99.90;;;;;;5016766;28;20969;-87
2022/10/20 06:07:49;;;;;;;4.60;2.00;;;11.70;99.90;;;;;;5017214;28;20799;-87
2022/10/20 06:10:17;;;;;;;2.03;1.23;;;11.70;99.90;;;;;;5016654;28;21009;-87
2022/10/20 06:12:44;;;;;;;5.73;1.93;;;11.70;99.90;;;;;;5016724;28;20492;-87
2022/10/20 06:15:11;;;;;;;4.27;1.67;;;11.70;99.90;;;;;;5016891;28;20463;-87
2022/10/20 06:17:38;;;;;;;3.90;1.27;;;11.70;99.90;;;;;;5016737;28;20465;-87
2022/10/20 06:20:05;;;;;;;9.30;1.70;;;11.70;99.90;;;;;;5016552;28;20463;-87
2022/10/20 06:22:32;;;;;;;3.53;1.07;;;11.70;99.90;;;;;;5017229;28;20444;-86
2022/10/20 06:24:58;;;;;;;1.40;1.00;;;11.70;99.90;;;;;;5016218;28;20436;-89
2022/10/20 06:27:26;;;;;;;3.17;1.33;;;11.70;99.90;;;;;;5016605;28;20454;-87
2022/10/20 06:29:53;;;;;;;4.87;2.40;;;11.80;99.90;;;;;;5016356;28;20414;-87
2022/10/20 06:32:20;;;;;;;1.13;1.00;;;11.90;99.90;;;;;;5016366;28;20441;-87
2022/10/20 06:34:47;;;;;;;3.00;1.50;;;11.90;99.90;;;;;;5016361;28;20812;-87
2022/10/20 06:37:13;;;;;;;3.33;1.13;;;11.90;99.90;;;;;;5016095;28;20940;-87
2022/10/20 06:39:40;;;;;;;4.87;2.83;;;12.00;99.90;;;;;;5015943;28;20464;-86
2022/10/20 06:42:07;;;;;;;3.43;1.87;;;12.00;99.90;;;;;;5016290;28;20935;-86
2022/10/20 06:44:35;;;;;;;2.93;1.23;;;12.10;99.90;;;;;;5016340;28;20456;-87
2022/10/20 06:47:03;;;;;;;3.20;1.53;;;12.10;99.90;;;;;;5016035;28;20452;-87
2022/10/20 06:49:30;;;;;;;2.33;1.60;;;12.10;99.90;;;;;;5024597;28;20499;-87
2022/10/20 06:51:57;;;;;;;2.20;1.37;;;12.20;99.90;;;;;;5016742;28;20463;-87
2022/10/20 06:54:24;;;;;;;2.10;1.27;;;12.20;99.90;;;;;;5016358;28;20495;-88
2022/10/20 06:56:51;;;;;;;3.53;1.53;;;12.10;99.90;;;;;;5015995;28;20451;-87
2022/10/20 06:59:17;;;;;;;3.47;1.43;;;12.20;99.90;;;;;;5015818;28;20444;-87
2022/10/20 07:01:46;;;;;;;1.80;1.20;;;12.20;99.90;;;;;;5015803;28;20480;-86
2022/10/20 07:04:15;;;;;;;1.40;1.30;;;12.20;99.90;;;;;;5016230;28;20455;-87
2022/10/20 07:06:43;;;;;;;1.50;1.40;;;12.30;99.90;;;;;;5015930;28;20458;-87
2022/10/20 07:09:13;;;;;;;2.30;1.40;;;12.40;99.90;;;;;;5016074;28;20459;-87
2022/10/20 07:11:40;;;;;;;1.03;0.90;;;12.40;99.90;;;;;;5016128;28;20547;-87
2022/10/20 07:14:07;;;;;;;3.93;1.70;;;12.50;99.90;;;;;;5015304;28;20994;-87
2022/10/20 07:16:35;;;;;;;2.10;1.60;;;12.60;99.90;;;;;;5015981;28;20467;-87
2022/10/20 07:19:04;;;;;;;3.50;1.47;;;12.70;99.90;;;;;;5015721;28;20440;-87
2022/10/20 07:21:31;;;;;;;3.53;1.10;;;12.80;99.90;;;;;;5015578;28;20997;-88
2022/10/20 07:24:01;;;;;;;4.13;1.63;;;12.80;99.90;;;;;;5015608;28;20802;-88
2022/10/20 07:26:29;;;;;;;3.30;1.50;;;12.90;99.90;;;;;;5015412;28;20452;-87
2022/10/20 07:28:58;;;;;;;3.70;1.60;;;13.10;99.90;;;;;;5015672;28;20459;-87
2022/10/20 07:31:27;;;;;;;3.83;1.27;;;13.20;99.90;;;;;;5015536;28;20842;-88
2022/10/20 07:33:54;;;;;;;3.30;1.37;;;13.40;99.90;;;;;;5015469;28;20488;-88
2022/10/20 07:36:24;;;;;;;5.47;1.70;;;13.60;99.90;;;;;;5015178;28;20441;-87
2022/10/20 07:38:52;;;;;;;2.17;1.50;;;13.70;99.90;;;;;;5015493;28;20804;-87
2022/10/20 07:41:19;;;;;;;4.07;1.80;;;13.80;99.90;;;;;;5015325;28;20989;-87
2022/10/20 07:43:46;;;;;;;5.13;1.20;;;13.80;99.90;;;;;;5015558;28;20452;-88
2022/10/20 07:46:13;;;;;;;5.00;2.40;;;13.90;99.90;;;;;;5015403;28;20932;-92
2022/10/20 07:48:40;;;;;;;6.30;1.70;;;14.00;99.90;;;;;;5015105;28;20463;-87
2022/10/20 07:51:14;;;;;;;3.17;1.83;;;14.10;99.90;;;;;;5014767;28;20464;-87
2022/10/20 07:53:43;;;;;;;3.10;1.63;;;14.10;99.90;;;;;;5015311;28;21114;-88
2022/10/20 07:56:10;;;;;;;2.77;1.47;;;14.10;99.90;;;;;;5015012;28;20456;-87
2022/10/20 07:58:37;;;;;;;3.53;1.40;;;14.20;99.90;;;;;;5015247;28;20456;-88
2022/10/20 08:01:04;;;;;;;3.13;1.23;;;14.30;99.90;;;;;;5014946;28;20479;-87
2022/10/20 08:03:31;;;;;;;1.30;1.20;;;14.30;99.90;;;;;;5016936;28;20428;-87
2022/10/20 08:05:58;;;;;;;3.13;1.20;;;14.40;99.90;;;;;;5015374;28;20451;-87
2022/10/20 08:08:25;;;;;;;1.90;1.20;;;14.40;99.90;;;;;;5014740;28;20939;-88
2022/10/20 08:10:53;;;;;;;1.87;0.90;;;14.40;99.90;;;;;;5014891;28;20469;-87
2022/10/20 08:13:20;;;;;;;7.00;2.10;;;14.50;99.90;;;;;;5014523;28;20508;-87
2022/10/20 08:15:47;;;;;;;2.50;1.43;;;14.70;99.90;;;;;;5014636;28;20443;-87
2022/10/20 08:18:13;;;;;;;4.83;1.67;;;14.80;99.90;;;;;;5015192;28;20420;-88
2022/10/20 08:20:40;;;;;;;2.73;1.70;;;15.00;99.90;;;;;;5015099;28;20849;-88
2022/10/20 08:23:07;;;;;;;3.00;1.40;;;15.10;99.90;;;;;;5014641;28;20452;-87
2022/10/20 08:25:34;;;;;;;3.00;1.87;;;15.20;99.90;;;;;;5014748;28;20440;-88
2022/10/20 08:28:02;;;;;;;4.50;1.50;;;15.40;99.90;;;;;;5014370;28;20962;-88
2022/10/20 08:30:29;;;;;;;4.10;2.10;;;15.60;99.90;;;;;;5014324;28;20503;-87
2022/10/20 08:32:57;;;;;;;1.60;1.03;;;15.70;99.90;;;;;;5014242;28;20436;-87
2022/10/20 08:35:24;;;;;;;4.83;1.63;;;15.80;99.90;;;;;;5014714;28;20459;-88
2022/10/20 08:37:51;;;;;;;2.80;1.90;;;15.90;99.90;;;;;;5014671;28;20448;-88
2022/10/20 08:40:21;;;;;;;3.67;1.97;;;16.10;99.90;;;;;;5014551;28;20472;-88
2022/10/20 08:42:48;;;;;;;1.70;1.30;;;16.30;99.90;;;;;;5014414;28;20448;-87
2022/10/20 08:45:19;;;;;;;3.03;1.23;;;16.50;99.90;;;;;;5014466;28;20448;-88
2022/10/20 08:47:49;;;;;;;2.40;1.33;;;16.50;99.90;;;;;;5014320;28;20417;-88
2022/10/20 08:50:20;;;;;;;5.03;1.50;;;16.60;99.90;;;;;;5014329;28;20488;-88
2022/10/20 08:52:50;;;;;;;5.13;1.70;;;16.70;99.90;;;;;;5014500;28;20440;-88
2022/10/20 08:55:24;;;;;;;2.70;1.10;;;17.00;99.90;;;;;;5014264;28;21038;-88
2022/10/20 08:57:51;;;;;;;1.80;1.30;;;17.50;99.90;;;;;;5014478;28;20452;-88
2022/10/20 09:00:22;;;;;;;1.93;1.20;;;18.10;99.90;;;;;;5014352;28;20460;-88
2022/10/20 09:02:51;;;;;;;1.80;1.40;;;18.20;99.90;;;;;;5015377;28;20553;-88
2022/10/20 09:05:22;;;;;;;1.93;1.10;;;18.00;99.90;;;;;;5018311;28;20459;-87
2022/10/20 09:07:50;;;;;;;2.50;1.33;;;17.70;99.90;;;;;;5018400;28;20443;-88
2022/10/20 09:10:28;;;;;;;5.30;1.80;;;17.30;99.90;;;;;;5018341;28;20974;-87
2022/10/20 09:12:56;;;;;;;4.47;1.53;;;17.00;99.90;;;;;;5018500;28;20448;-88
2022/10/20 09:15:26;;;;;;;2.63;1.80;;;16.90;99.90;;;;;;5017816;28;20809;-87
2022/10/20 09:17:56;;;;;;;2.17;1.43;;;17.10;99.90;;;;;;5017980;28;20490;-88
2022/10/20 09:20:27;;;;;;;2.20;1.23;;;17.40;99.90;;;;;;5017950;28;20468;-88
2022/10/20 09:22:53;;;;;;;1.70;1.30;;;17.70;99.90;;;;;;5017815;28;20417;-87
2022/10/20 09:25:26;;;;;;;3.93;1.40;;;18.00;99.90;;;;;;5017608;28;20963;-88
2022/10/20 09:27:55;;;;;;;1.77;1.30;;;18.00;99.90;;;;;;5018559;28;20449;-88
2022/10/20 09:30:32;;;;;;;2.50;1.30;;;17.80;99.90;;;;;;5017600;28;20456;-88
2022/10/20 09:32:59;;;;;;;3.07;1.10;;;17.70;99.90;;;;;;5017874;28;20432;-88
2022/10/20 09:35:28;;;;;;;1.57;1.10;;;17.40;99.90;;;;;;5017340;28;20594;-83
2022/10/20 09:38:02;;;;;;;4.23;1.70;;;17.30;99.90;;;;;;5018106;28;20445;-86
2022/10/20 09:40:29;;;;;;;2.07;0.93;;;17.20;99.90;;;;;;5017930;28;20480;-93
2022/10/20 09:43:01;;;;;;;2.00;1.23;;;16.90;99.90;;;;;;5017626;28;20456;-86
2022/10/20 09:45:31;;;;;;;9.63;1.80;;;16.80;99.90;;;;;;5017085;28;20436;-86
2022/10/20 09:48:03;;;;;;;1.10;1.00;;;16.70;99.90;;;;;;5017576;28;20519;-86
2022/10/20 09:50:33;;;;;;;2.20;1.37;;;16.50;99.90;;;;;;5017268;28;20939;-87
2022/10/20 09:53:01;;;;;;;1.13;1.03;;;16.40;99.90;;;;;;5017191;28;20462;-87
2022/10/20 09:55:30;;;;;;;2.40;1.50;;;16.40;99.90;;;;;;5017190;28;20491;-88
2022/10/20 09:58:00;;;;;;;1.13;0.90;;;16.40;99.90;;;;;;5017627;28;20441;-88
2022/10/20 10:00:31;;;;;;;2.00;1.30;;;16.50;99.90;;;;;;5017210;28;20476;-87
2022/10/20 10:03:09;;;;;;;1.20;0.80;;;16.60;99.90;;;;;;5016807;28;20494;-87
2022/10/20 10:05:37;;;;;;;6.03;1.20;;;16.80;99.90;;;;;;5017345;28;20443;-87
2022/10/20 10:08:03;;;;;;;1.10;0.73;;;16.90;99.90;;;;;;5017121;28;20436;-88
2022/10/20 10:10:31;;;;;;;0.90;0.70;;;17.10;99.90;;;;;;5017110;28;20464;-88
2022/10/20 10:13:02;;;;;;;11.90;1.10;;;17.20;99.90;;;;;;5017082;28;20413;-87
2022/10/20 10:15:34;;;;;;;2.00;0.90;;;17.30;99.90;;;;;;5017477;28;20476;-87
2022/10/20 10:18:11;;;;;;;2.43;1.10;;;17.30;99.90;;;;;;5016941;28;20441;-87
2022/10/20 10:20:39;;;;;;;1.80;0.70;;;17.30;99.90;;;;;;5016675;28;20952;-87
2022/10/20 10:23:25;;;;;;;6.33;1.93;;;17.40;99.90;;;;;;5016810;28;20452;-87
2022/10/20 10:25:53;;;;;;;1.33;1.17;;;17.60;99.90;;;;;;5017002;28;20824;-87
2022/10/20 10:28:30;;;;;;;1.13;0.70;;;17.80;99.90;;;;;;5016490;28;20469;-87
2022/10/20 10:31:26;;;;;;;2.10;0.80;;;17.90;99.90;;;;;;5016430;28;20474;-87
2022/10/20 10:34:02;;;;;;;0.90;0.83;;;17.90;99.90;;;;;;4992805;28;20484;-87
2022/10/20 10:36:33;;;;;;;2.00;1.00;;;17.80;99.90;;;;;;5016634;28;20417;-87
2022/10/20 10:39:00;;;;;;;2.77;1.10;;;17.60;99.90;;;;;;5016773;28;20452;-87
2022/10/20 10:41:44;;;;;;;3.80;1.57;;;17.60;99.90;;;;;;5016221;28;20452;-87
2022/10/20 10:44:18;;;;;;;2.83;1.30;;;17.60;99.90;;;;;;5016792;28;20440;-87
2022/10/20 10:46:55;;;;;;;1.00;0.70;;;17.40;99.90;;;;;;5016306;28;20436;-87
2022/10/20 10:49:41;;;;;;;0.87;0.77;;;17.30;99.90;;;;;;5016237;28;20934;-88
2022/10/20 10:52:18;;;;;;;3.33;1.33;;;17.20;99.90;;;;;;5016426;28;20504;-87
2022/10/20 10:55:03;;;;;;;4.33;1.33;;;17.10;99.90;;;;;;5016001;28;20476;-88
2022/10/20 10:57:32;;;;;;;3.23;1.90;;;17.10;99.90;;;;;;5016166;28;20868;-87
2022/10/20 11:00:02;;;;;;;2.37;1.17;;;17.00;99.90;;;;;;5015894;28;20464;-87
2022/10/20 11:03:05;;;;;;;1.00;0.70;;;17.10;99.90;;;;;;5015549;28;20886;-87
2022/10/20 11:05:51;;;;;;;1.30;0.80;;;17.20;99.90;;;;;;5015034;28;20444;-87
2022/10/20 11:08:27;;;;;;;3.33;1.50;;;17.40;99.90;;;;;;5015357;28;20456;-86
2022/10/20 11:11:02;;;;;;;2.50;1.10;;;17.50;99.90;;;;;;5015472;28;20464;-86
2022/10/20 11:13:33;;;;;;;2.10;1.13;;;17.60;99.90;;;;;;5015817;28;20432;-87
2022/10/20 11:16:18;;;;;;;3.90;1.73;;;17.60;99.90;;;;;;5015675;28;20472;-87
2022/10/20 11:19:21;;;;;;;2.30;1.53;;;17.60;99.90;;;;;;5015712;28;20459;-87
2022/10/20 11:22:03;;;;;;;1.30;1.20;;;17.70;99.90;;;;;;5015241;28;20463;-87
2022/10/20 11:24:43;;;;;;;6.23;1.63;;;17.70;99.90;;;;;;5014921;28;20425;-87
2022/10/20 11:27:12;;;;;;;2.50;1.40;;;17.60;99.90;;;;;;5015138;28;20433;-87
2022/10/20 11:29:43;;;;;;;1.73;1.30;;;17.60;99.90;;;;;;5015780;28;20448;-87
2022/10/20 11:32:25;;;;;;;4.93;1.20;;;17.50;99.90;;;;;;5015140;28;21022;-87
2022/10/20 11:35:02;;;;;;;1.80;1.40;;;17.50;99.90;;;;;;5015955;28;20566;-87
2022/10/20 11:37:34;;;;;;;1.97;1.23;;;17.60;99.90;;;;;;5014985;28;20432;-87
2022/10/20 11:40:13;;;;;;;1.90;1.23;;;17.60;99.90;;;;;;5015293;28;20475;-86
2022/10/20 11:42:44;;;;;;;1.03;0.63;;;17.50;99.90;;;;;;5015154;28;20472;-87
2022/10/20 11:45:26;;;;;;;2.70;2.07;;;17.40;99.90;;;;;;5015254;28;20443;-88
2022/10/20 11:48:00;;;;;;;0.80;0.70;;;17.40;99.90;;;;;;5015250;28;20812;-87
2022/10/20 11:50:27;;;;;;;2.03;1.20;;;17.40;99.90;;;;;;5014740;28;20463;-87
2022/10/20 11:53:19;;;;;;;1.80;1.17;;;17.40;99.90;;;;;;5015005;28;20813;-87
2022/10/20 11:56:12;;;;;;;1.77;1.17;;;17.30;99.90;;;;;;5014962;28;20472;-87
2022/10/20 11:59:13;;;;;;;2.80;1.00;;;17.30;99.90;;;;;;5015036;28;20444;-87
2022/10/20 12:01:56;;;;;;;2.00;0.83;;;17.30;99.90;;;;;;5010845;28;20498;-87
2022/10/20 12:04:44;;;;;;;0.80;0.80;;;17.40;99.90;;;;;;5014643;28;20464;-87
2022/10/20 12:07:37;;;;;;;1.40;0.90;;;17.50;99.90;;;;;;5014678;28;20441;-87
2022/10/20 12:10:33;;;;;;;1.00;0.70;;;17.60;99.90;;;;;;5014710;28;20467;-87
2022/10/20 12:13:13;;;;;;;1.33;0.73;;;17.70;99.90;;;;;;5014817;28;20448;-87
2022/10/20 12:15:46;;;;;;;1.23;0.83;;;17.80;99.90;;;;;;5014703;28;20475;-87
2022/10/20 12:18:22;;;;;;;1.33;1.10;;;17.90;99.90;;;;;;5014481;28;20437;-88
2022/10/20 12:20:51;;;;;;;1.13;0.83;;;17.90;99.90;;;;;;5014585;28;20468;-87
2022/10/20 12:23:53;;;;;;;1.10;0.80;;;17.80;99.90;;;;;;5014712;28;20463;-87
2022/10/20 12:27:16;;;;;;;2.53;1.30;;;17.80;99.90;;;;;;5014543;28;20800;-87
2022/10/20 12:30:00;;;;;;;1.90;1.10;;;17.60;99.90;;;;;;5014603;28;20857;-88
2022/10/20 12:32:54;;;;;;;1.67;1.10;;;17.60;99.90;;;;;;5014564;28;20439;-87
2022/10/20 12:35:52;;;;;;;1.10;1.10;;;17.50;99.90;;;;;;5014012;28;20851;-87
2022/10/20 12:38:21;;;;;;;1.27;1.00;;;17.30;99.90;;;;;;5014157;28;20451;-87
2022/10/20 12:40:54;;;;;;;2.57;1.40;;;17.20;99.90;;;;;;5014438;28;20468;-87
2022/10/20 12:43:26;;;;;;;1.60;1.00;;;17.10;99.90;;;;;;5014986;28;20468;-87
2022/10/20 12:45:58;;;;;;;2.30;1.07;;;17.00;99.90;;;;;;5014524;28;20762;-87
2022/10/20 12:48:25;;;;;;;3.57;0.90;;;16.90;99.90;;;;;;5014443;28;20437;-87
2022/10/20 12:50:53;;;;;;;5.37;1.27;;;16.90;99.90;;;;;;5019304;28;20472;-87
2022/10/20 12:53:25;;;;;;;1.37;1.10;;;16.90;99.90;;;;;;5014506;28;20444;-85
2022/10/20 12:55:57;;;;;;;1.80;1.10;;;16.80;99.90;;;;;;5013741;28;20818;-84
2022/10/20 12:58:31;;;;;;;0.97;0.87;;;16.70;99.90;;;;;;5014242;28;20446;-86
2022/10/20 13:01:05;;;;;;;2.40;1.50;;;16.60;99.90;;;;;;5013900;28;20539;-86
2022/10/20 13:03:39;;;;;;;0.70;0.70;;;16.50;99.90;;;;;;5013903;28;20440;-87
2022/10/20 13:06:40;;;;;;;1.20;0.80;;;16.40;99.90;;;;;;5013833;28;20433;-86
2022/10/20 13:09:21;;;;;;;1.50;0.80;;;16.40;99.90;;;;;;5013935;28;20502;-86